createdAt,value
2023-05-10T00:00:49.460Z,1.60
2023-05-10T00:03:51.859Z,1.80
2023-05-10T00:06:54.806Z,1.70
2023-05-10T00:09:57.161Z,1.70
2023-05-10T00:12:59.402Z,1.90
2023-05-10T00:16:01.813Z,1.73
2023-05-10T00:19:04.144Z,1.63
2023-05-10T00:22:06.430Z,1.87
2023-05-10T00:25:09.522Z,2.00
2023-05-10T00:28:11.858Z,1.60
2023-05-10T00:31:15.747Z,1.80
2023-05-10T00:34:18.088Z,2.03
2023-05-10T00:37:20.845Z,1.60
2023-05-10T00:40:23.304Z,1.80
2023-05-10T00:43:30.262Z,1.45
2023-05-10T00:46:32.787Z,1.92
2023-05-10T00:49:36.359Z,2.67
2023-05-10T00:52:38.781Z,1.90
2023-05-10T00:55:41.094Z,1.92
2023-05-10T00:58:43.869Z,1.80
2023-05-10T01:01:46.899Z,1.63
2023-05-10T01:04:50.106Z,1.92
2023-05-10T01:07:52.382Z,1.60
2023-05-10T01:10:55.167Z,1.85
2023-05-10T01:13:58.891Z,1.85
2023-05-10T01:17:01.653Z,2.03
2023-05-10T01:20:04.216Z,2.20
2023-05-10T01:23:37.412Z,2.00
2023-05-10T01:26:42.662Z,1.80
2023-05-10T01:30:17.672Z,1.88
2023-05-10T01:33:29.854Z,1.98
2023-05-10T01:36:35.993Z,2.10
2023-05-10T01:39:46.146Z,1.90
2023-05-10T01:42:56.572Z,2.05
2023-05-10T01:46:11.461Z,2.28
2023-05-10T01:49:41.517Z,2.08
2023-05-10T01:52:46.445Z,1.85
2023-05-10T01:55:51.403Z,2.00
2023-05-10T01:58:54.272Z,2.35
2023-05-10T02:01:59.120Z,2.40
2023-05-10T02:05:01.631Z,2.05
2023-05-10T02:08:07.309Z,2.05
2023-05-10T02:11:12.319Z,2.17
2023-05-10T02:14:16.415Z,2.08
2023-05-10T02:17:19.240Z,2.28
2023-05-10T02:20:22.130Z,2.22
2023-05-10T02:23:24.861Z,1.80
2023-05-10T02:26:27.457Z,2.20
2023-05-10T02:29:30.072Z,2.08
2023-05-10T02:32:32.561Z,2.00
2023-05-10T02:35:36.164Z,2.05
2023-05-10T02:38:38.841Z,1.63
2023-05-10T02:41:42.655Z,1.77
2023-05-10T02:44:47.039Z,1.80
2023-05-10T02:47:51.105Z,1.73
2023-05-10T02:50:54.187Z,2.10
2023-05-10T02:53:57.733Z,1.98
2023-05-10T02:57:02.439Z,2.00
2023-05-10T03:00:05.231Z,2.03
2023-05-10T03:03:07.982Z,1.95
2023-05-10T03:06:10.680Z,2.35
2023-05-10T03:09:16.277Z,2.50
2023-05-10T03:12:33.809Z,2.13
2023-05-10T03:16:07.712Z,2.00
2023-05-10T03:19:18.946Z,2.00
2023-05-10T03:22:33.486Z,2.10
2023-05-10T03:25:36.275Z,2.20
2023-05-10T03:28:41.903Z,2.30
2023-05-10T03:31:44.577Z,2.05
2023-05-10T03:34:46.968Z,2.15
2023-05-10T03:37:49.302Z,2.15
2023-05-10T03:40:51.808Z,3.10
2023-05-10T03:43:54.622Z,2.33
2023-05-10T03:46:57.974Z,2.45
2023-05-10T03:50:00.630Z,2.50
2023-05-10T03:53:03.313Z,2.65
2023-05-10T03:56:05.888Z,2.63
2023-05-10T03:59:09.811Z,2.43
2023-05-10T04:02:12.178Z,3.00
2023-05-10T04:05:14.492Z,2.70
2023-05-10T04:08:18.004Z,2.67
2023-05-10T04:11:23.006Z,2.13
2023-05-10T04:14:25.708Z,2.97
2023-05-10T04:17:28.120Z,2.50
2023-05-10T04:20:30.481Z,2.47
2023-05-10T04:23:32.810Z,2.78
2023-05-10T04:26:35.084Z,2.80
2023-05-10T04:29:37.324Z,2.77
2023-05-10T04:32:39.674Z,2.95
2023-05-10T04:35:42.156Z,2.70
2023-05-10T04:38:44.882Z,3.30
2023-05-10T04:41:47.177Z,2.90
2023-05-10T04:44:49.447Z,2.50
2023-05-10T04:47:51.741Z,2.78
2023-05-10T04:50:53.993Z,3.15
2023-05-10T04:54:05.329Z,2.78
2023-05-10T04:57:09.058Z,2.40
2023-05-10T05:00:12.028Z,2.87
2023-05-10T05:03:14.418Z,2.47
2023-05-10T05:06:16.701Z,2.53
2023-05-10T05:09:19.023Z,2.58
2023-05-10T05:12:21.318Z,3.03
2023-05-10T05:15:23.667Z,2.70
2023-05-10T05:18:25.903Z,3.00
2023-05-10T05:21:28.342Z,2.90
2023-05-10T05:24:30.637Z,2.95
2023-05-10T05:27:33.364Z,3.05
2023-05-10T05:30:35.688Z,3.00
2023-05-10T05:33:38.232Z,3.70
2023-05-10T05:36:44.145Z,3.25
2023-05-10T05:39:46.717Z,3.33
2023-05-10T05:42:49.083Z,4.35
2023-05-10T05:45:53.393Z,3.20
2023-05-10T05:48:55.680Z,3.67
2023-05-10T05:52:04.999Z,3.28
2023-05-10T05:55:07.542Z,3.05
2023-05-10T05:58:09.855Z,3.08
2023-05-10T06:01:12.079Z,3.30
2023-05-10T06:04:15.952Z,2.85
2023-05-10T06:07:18.335Z,3.20
2023-05-10T06:10:20.668Z,3.30
2023-05-10T06:13:23.020Z,3.50
2023-05-10T06:16:25.368Z,3.40
2023-05-10T06:19:28.366Z,3.67
2023-05-10T06:22:30.755Z,3.35
2023-05-10T06:25:33.147Z,2.83
2023-05-10T06:28:35.482Z,2.80
2023-05-10T06:31:37.808Z,2.80
2023-05-10T06:34:40.104Z,2.95
2023-05-10T06:37:42.382Z,3.20
2023-05-10T06:40:44.955Z,2.70
2023-05-10T06:43:47.233Z,3.10
2023-05-10T06:46:49.579Z,2.73
2023-05-10T06:49:52.215Z,3.00
2023-05-10T06:52:54.522Z,2.90
2023-05-10T06:55:56.823Z,4.40
2023-05-10T06:58:59.041Z,2.97
2023-05-10T07:02:01.510Z,3.20
2023-05-10T07:05:05.807Z,2.90
2023-05-10T07:08:08.548Z,3.50
2023-05-10T07:11:11.717Z,3.20
2023-05-10T07:14:14.015Z,2.97
2023-05-10T07:17:16.388Z,3.13
2023-05-10T07:20:21.614Z,3.05
2023-05-10T07:23:23.936Z,3.22
2023-05-10T07:26:26.288Z,3.03
2023-05-10T07:29:29.515Z,3.25
2023-05-10T07:32:32.556Z,2.30
2023-05-10T07:35:35.026Z,2.45
2023-05-10T07:38:38.981Z,2.50
2023-05-10T07:41:43.130Z,2.50
2023-05-10T07:44:46.551Z,2.80
2023-05-10T07:47:48.976Z,2.40
2023-05-10T07:50:51.266Z,2.13
2023-05-10T07:53:54.059Z,2.22
2023-05-10T07:56:56.490Z,3.15
2023-05-10T07:59:58.748Z,2.38
2023-05-10T08:03:01.134Z,3.00
2023-05-10T08:06:04.560Z,2.40
2023-05-10T08:09:07.389Z,2.35
2023-05-10T08:12:09.692Z,2.25
2023-05-10T08:15:11.973Z,2.42
2023-05-10T08:18:14.577Z,2.70
2023-05-10T08:21:17.429Z,2.30
2023-05-10T08:24:19.701Z,2.40
2023-05-10T08:27:21.938Z,2.30
2023-05-10T08:30:24.361Z,2.58
2023-05-10T08:33:26.962Z,2.73
2023-05-10T08:36:29.420Z,2.90
2023-05-10T08:39:35.731Z,2.20
2023-05-10T08:42:41.353Z,1.98
2023-05-10T08:45:46.447Z,2.72
2023-05-10T08:48:50.836Z,3.13
2023-05-10T08:51:56.122Z,2.75
2023-05-10T08:54:58.456Z,2.55
2023-05-10T08:58:01.476Z,2.30
2023-05-10T09:01:04.101Z,2.40
2023-05-10T09:04:06.453Z,2.63
2023-05-10T09:07:09.016Z,2.40
2023-05-10T09:10:12.809Z,2.20
2023-05-10T09:13:16.710Z,2.53
2023-05-10T09:16:21.658Z,2.40
2023-05-10T09:19:24.885Z,2.10
2023-05-10T09:22:27.947Z,3.05
2023-05-10T09:25:30.407Z,2.20
2023-05-10T09:28:34.428Z,2.45
2023-05-10T09:31:52.156Z,3.30
2023-05-10T09:34:54.521Z,2.17
2023-05-10T09:37:59.192Z,2.45
2023-05-10T09:41:03.637Z,2.10
2023-05-10T09:44:06.378Z,1.98
2023-05-10T09:47:08.671Z,2.35
2023-05-10T09:50:11.356Z,2.10
2023-05-10T09:53:16.485Z,2.38
2023-05-10T09:56:38.208Z,2.05
2023-05-10T09:59:43.971Z,2.10
2023-05-10T10:02:47.634Z,2.40
2023-05-10T10:05:50.491Z,2.00
2023-05-10T10:08:54.462Z,1.92
2023-05-10T10:12:00.061Z,1.80
2023-05-10T10:15:02.447Z,1.92
2023-05-10T10:18:06.533Z,1.80
2023-05-10T10:21:09.817Z,1.83
2023-05-10T10:24:12.077Z,1.40
2023-05-10T10:27:52.863Z,2.00
2023-05-10T10:30:56.398Z,1.73
2023-05-10T10:34:06.035Z,1.30
2023-05-10T10:37:08.332Z,2.50
2023-05-10T10:40:27.883Z,1.92
2023-05-10T10:43:30.654Z,1.67
2023-05-10T10:46:35.570Z,1.40
2023-05-10T10:49:40.931Z,1.27
2023-05-10T10:52:47.141Z,1.33
2023-05-10T10:56:07.616Z,1.60
2023-05-10T10:59:10.032Z,1.38
2023-05-10T11:02:55.095Z,1.20
2023-05-10T11:05:59.766Z,1.20
2023-05-10T11:09:12.557Z,1.80
2023-05-10T11:12:14.899Z,1.30
2023-05-10T11:15:17.386Z,1.35
2023-05-10T11:18:29.924Z,1.50
2023-05-10T11:21:33.733Z,1.23
2023-05-10T11:24:36.912Z,1.33
2023-05-10T11:27:39.367Z,1.55
2023-05-10T11:30:43.287Z,1.65
2023-05-10T11:33:48.627Z,1.25
2023-05-10T11:36:55.284Z,1.20
2023-05-10T11:39:57.507Z,1.40
2023-05-10T11:43:00.228Z,1.27
2023-05-10T11:46:02.946Z,1.23
2023-05-10T11:49:08.005Z,1.40
2023-05-10T11:52:12.108Z,1.30
2023-05-10T11:55:14.524Z,0.93
2023-05-10T11:58:16.838Z,1.52
2023-05-10T12:01:19.124Z,1.42
2023-05-10T12:04:21.719Z,1.00
2023-05-10T12:07:24.066Z,1.30
2023-05-10T12:10:27.960Z,1.53
2023-05-10T12:13:30.326Z,1.60
2023-05-10T12:16:32.750Z,1.73
2023-05-10T12:19:39.612Z,1.33
2023-05-10T12:22:41.894Z,1.20
2023-05-10T12:25:44.353Z,1.60
2023-05-10T12:28:46.581Z,1.50
2023-05-10T12:31:54.086Z,5.70
2023-05-10T12:34:56.326Z,2.25
2023-05-10T12:38:01.991Z,1.70
2023-05-10T12:41:06.346Z,1.20
2023-05-10T12:44:08.666Z,1.00
2023-05-10T12:47:11.808Z,1.60
2023-05-10T12:50:14.199Z,1.20
2023-05-10T12:53:18.669Z,1.40
2023-05-10T12:56:21.494Z,1.40
2023-05-10T12:59:24.007Z,0.98
2023-05-10T13:02:26.286Z,0.98
2023-05-10T13:05:28.643Z,1.20
2023-05-10T13:08:34.528Z,1.10
2023-05-10T13:11:37.557Z,1.13
2023-05-10T13:14:41.604Z,0.80
2023-05-10T13:17:44.060Z,1.00
2023-05-10T13:20:46.353Z,1.30
2023-05-10T13:23:48.683Z,1.25
2023-05-10T13:26:51.075Z,1.10
2023-05-10T13:29:53.384Z,1.20
2023-05-10T13:32:58.607Z,1.00
2023-05-10T13:36:03.586Z,0.90
2023-05-10T13:39:06.382Z,1.10
2023-05-10T13:42:08.714Z,1.17
2023-05-10T13:45:13.268Z,0.93
2023-05-10T13:48:16.117Z,0.98
2023-05-10T13:51:18.615Z,0.80
2023-05-10T13:54:20.979Z,0.95
2023-05-10T13:57:24.182Z,0.90
2023-05-10T14:00:27.277Z,0.80
2023-05-10T14:03:30.554Z,0.90
2023-05-10T14:06:33.083Z,0.70
2023-05-10T14:09:35.562Z,0.82
2023-05-10T14:12:37.967Z,0.70
2023-05-10T14:20:27.647Z,1.13
2023-05-10T14:23:30.068Z,1.10
2023-05-10T14:26:32.525Z,0.68
2023-05-10T14:29:34.917Z,0.90
2023-05-10T14:32:37.912Z,0.80
2023-05-10T14:35:40.685Z,1.15
2023-05-10T14:38:42.992Z,0.70
2023-05-10T14:41:46.770Z,1.02
2023-05-10T14:44:49.044Z,0.97
2023-05-10T14:47:51.496Z,0.90
2023-05-10T14:50:53.949Z,0.93
2023-05-10T14:53:56.534Z,1.30
2023-05-10T14:56:59.437Z,1.85
2023-05-10T15:00:01.894Z,0.50
2023-05-10T15:03:04.997Z,0.80
2023-05-10T15:06:09.248Z,0.80
2023-05-10T15:09:11.567Z,0.68
2023-05-10T15:12:13.904Z,0.50
2023-05-10T15:15:16.706Z,0.40
2023-05-10T15:18:19.220Z,0.70
2023-05-10T15:21:21.611Z,0.82
2023-05-10T15:24:23.914Z,0.55
2023-05-10T15:27:26.936Z,0.80
2023-05-10T15:30:30.020Z,0.60
2023-05-10T15:33:32.312Z,0.85
2023-05-10T15:36:34.563Z,0.75
2023-05-10T15:39:36.877Z,0.73
2023-05-10T15:42:39.408Z,0.60
2023-05-10T15:45:41.692Z,0.77
2023-05-10T15:48:43.992Z,0.80
2023-05-10T15:51:46.241Z,0.80
2023-05-10T15:54:48.528Z,0.80
2023-05-10T15:57:51.455Z,0.75
2023-05-10T16:00:53.785Z,0.97
2023-05-10T16:03:55.943Z,0.88
2023-05-10T16:06:58.212Z,1.00
2023-05-10T16:10:04.127Z,1.13
2023-05-10T16:13:06.488Z,0.95
2023-05-10T16:16:09.091Z,0.90
2023-05-10T16:19:11.541Z,0.93
2023-05-10T16:22:14.342Z,1.10
2023-05-10T16:25:17.100Z,0.90
2023-05-10T16:28:21.195Z,1.23
2023-05-10T16:31:23.579Z,1.20
2023-05-10T16:34:25.945Z,1.42
2023-05-10T16:37:28.539Z,1.10
2023-05-10T16:40:31.476Z,0.90
2023-05-10T16:43:33.812Z,1.17
2023-05-10T16:46:36.641Z,1.20
2023-05-10T16:49:38.903Z,1.60
2023-05-10T16:52:41.448Z,1.38
2023-05-10T16:55:43.723Z,1.23
2023-05-10T16:58:47.659Z,0.95
2023-05-10T17:01:50.062Z,1.27
2023-05-10T17:04:54.932Z,1.27
2023-05-10T17:07:57.240Z,1.65
2023-05-10T17:11:03.950Z,1.50
2023-05-10T17:14:06.488Z,1.20
2023-05-10T17:17:08.828Z,1.40
2023-05-10T17:20:11.361Z,1.45
2023-05-10T17:23:13.688Z,1.02
2023-05-10T17:26:17.130Z,1.08
2023-05-10T17:29:19.382Z,1.20
2023-05-10T17:32:21.671Z,1.10
2023-05-10T17:35:24.010Z,1.55
2023-05-10T17:38:26.386Z,1.42
2023-05-10T17:41:28.956Z,1.30
2023-05-10T17:44:31.378Z,1.00
2023-05-10T17:47:34.342Z,1.50
2023-05-10T17:50:41.723Z,1.20
2023-05-10T17:53:44.630Z,1.15
2023-05-10T17:56:46.885Z,1.00
2023-05-10T17:59:49.143Z,1.10
2023-05-10T18:02:51.391Z,0.90
2023-05-10T18:05:55.321Z,0.90
2023-05-10T18:08:57.811Z,1.23
2023-05-10T18:12:02.433Z,1.15
2023-05-10T18:15:05.434Z,1.20
2023-05-10T18:18:07.901Z,1.27
2023-05-10T18:21:10.489Z,1.08
2023-05-10T18:24:12.876Z,1.10
2023-05-10T18:27:15.425Z,1.20
2023-05-10T18:30:18.538Z,0.90
2023-05-10T18:33:20.864Z,1.43
2023-05-10T18:36:23.616Z,0.82
2023-05-10T18:39:25.930Z,1.30
2023-05-10T18:42:28.295Z,1.23
2023-05-10T18:45:30.526Z,1.10
2023-05-10T18:48:32.851Z,1.10
2023-05-10T18:51:35.174Z,1.52
2023-05-10T18:54:37.435Z,1.20
2023-05-10T18:57:41.882Z,1.13
2023-05-10T19:00:44.228Z,1.15
2023-05-10T19:03:46.459Z,0.90
2023-05-10T19:06:48.821Z,1.10
2023-05-10T19:09:51.102Z,1.25
2023-05-10T19:12:53.512Z,1.10
2023-05-10T19:16:16.871Z,1.05
2023-05-10T19:19:20.278Z,1.33
2023-05-10T19:22:36.121Z,1.10
2023-05-10T19:25:46.373Z,1.25
2023-05-10T19:28:52.059Z,1.00
2023-05-10T19:31:54.458Z,1.10
2023-05-10T19:34:56.867Z,0.90
2023-05-10T19:37:59.269Z,1.42
2023-05-10T19:41:01.545Z,1.63
2023-05-10T19:44:03.915Z,1.40
2023-05-10T19:47:06.409Z,1.40
2023-05-10T19:50:09.070Z,1.23
2023-05-10T19:53:11.404Z,1.13
2023-05-10T19:56:14.331Z,1.42
2023-05-10T19:59:16.586Z,1.30
2023-05-10T20:02:18.820Z,1.38
2023-05-10T20:05:21.748Z,1.60
2023-05-10T20:08:25.580Z,1.20
2023-05-10T20:11:27.846Z,1.40
2023-05-10T20:14:30.115Z,1.40
2023-05-10T20:17:32.424Z,1.38
2023-05-10T20:20:34.773Z,1.50
2023-05-10T20:23:37.246Z,1.63
2023-05-10T20:26:40.537Z,1.10
2023-05-10T20:29:42.814Z,1.35
2023-05-10T20:32:45.119Z,1.30
2023-05-10T20:35:47.455Z,1.30
2023-05-10T20:38:49.711Z,1.13
2023-05-10T20:41:53.847Z,1.30
2023-05-10T20:44:56.187Z,1.27
2023-05-10T20:47:58.594Z,1.33
2023-05-10T20:51:02.260Z,1.20
2023-05-10T20:54:04.881Z,1.10
2023-05-10T20:57:07.475Z,0.95
2023-05-10T21:00:10.409Z,0.98
2023-05-10T21:03:14.224Z,1.13
2023-05-10T21:06:16.524Z,1.03
2023-05-10T21:09:18.859Z,1.27
2023-05-10T21:12:21.166Z,1.25
2023-05-10T21:15:24.541Z,1.40
2023-05-10T21:18:26.919Z,1.05
2023-05-10T21:21:29.459Z,1.20
2023-05-10T21:24:31.765Z,1.20
2023-05-10T21:27:34.960Z,1.33
2023-05-10T21:30:37.187Z,1.30
2023-05-10T21:33:39.454Z,1.17
2023-05-10T21:36:41.763Z,1.33
2023-05-10T21:39:44.389Z,1.20
2023-05-10T21:42:49.652Z,1.50
2023-05-10T21:45:52.047Z,1.20
2023-05-10T21:48:54.377Z,1.20
2023-05-10T21:51:56.820Z,1.47
2023-05-10T21:54:59.166Z,1.10
2023-05-10T21:58:01.416Z,1.60
2023-05-10T22:01:03.776Z,1.27
2023-05-10T22:04:06.084Z,1.30
2023-05-10T22:07:08.366Z,1.30
2023-05-10T22:10:10.841Z,1.30
2023-05-10T22:13:13.117Z,1.45
2023-05-10T22:16:15.571Z,1.13
2023-05-10T22:19:18.005Z,1.40
2023-05-10T22:22:20.610Z,1.20
2023-05-10T22:25:23.035Z,1.20
2023-05-10T22:28:25.462Z,1.50
2023-05-10T22:31:27.986Z,1.50
2023-05-10T22:34:30.303Z,1.52
2023-05-10T22:37:32.532Z,2.10
2023-05-10T22:40:34.789Z,1.38
2023-05-10T22:43:37.045Z,1.65
2023-05-10T22:46:39.322Z,1.63
2023-05-10T22:49:41.571Z,1.33
2023-05-10T22:52:43.843Z,1.40
2023-05-10T22:55:47.100Z,1.38
2023-05-10T22:58:50.763Z,1.58
2023-05-10T23:01:53.107Z,1.52
2023-05-10T23:04:55.739Z,1.73
2023-05-10T23:07:58.009Z,1.63
2023-05-10T23:11:00.364Z,2.65
2023-05-10T23:14:02.673Z,1.52
2023-05-10T23:17:04.939Z,1.50
2023-05-10T23:20:07.790Z,1.60
2023-05-10T23:23:10.921Z,1.43
2023-05-10T23:26:13.172Z,1.67
2023-05-10T23:29:15.456Z,1.75
2023-05-10T23:32:18.065Z,1.92
2023-05-10T23:35:20.368Z,1.45
2023-05-10T23:38:22.659Z,1.70
2023-05-10T23:41:26.447Z,1.65
2023-05-10T23:44:28.779Z,1.70
2023-05-10T23:47:31.027Z,1.58
2023-05-10T23:50:33.297Z,1.63
2023-05-10T23:53:35.635Z,1.70
2023-05-10T23:56:37.873Z,1.55
2023-05-10T23:59:40.119Z,1.50
